createdAt,value
2023-08-07T00:02:01.610Z,97.25
2023-08-07T00:04:28.111Z,97.59
2023-08-07T00:06:59.375Z,97.30
2023-08-07T00:09:26.278Z,97.62
2023-08-07T00:11:52.991Z,97.50
2023-08-07T00:14:19.612Z,97.61
2023-08-07T00:16:46.188Z,96.94
2023-08-07T00:19:12.664Z,97.14
2023-08-07T00:21:43.170Z,97.33
2023-08-07T00:24:09.669Z,98.27
2023-08-07T00:26:36.203Z,97.83
2023-08-07T00:29:02.725Z,96.88
2023-08-07T00:31:32.411Z,97.39
2023-08-07T00:33:59.713Z,97.75
2023-08-07T00:36:26.661Z,97.51
2023-08-07T00:38:53.247Z,97.20
2023-08-07T00:41:19.752Z,97.81
2023-08-07T00:43:46.280Z,97.83
2023-08-07T00:46:13.038Z,98.29
2023-08-07T00:48:40.144Z,97.91
2023-08-07T00:51:09.050Z,98.13
2023-08-07T00:53:39.202Z,98.03
2023-08-07T00:56:06.097Z,98.61
2023-08-07T00:58:35.583Z,98.25
2023-08-07T01:01:02.279Z,98.91
2023-08-07T01:03:28.888Z,98.44
2023-08-07T01:05:55.437Z,98.30
2023-08-07T01:08:22.044Z,99.16
2023-08-07T01:11:11.988Z,98.61
2023-08-07T01:13:48.233Z,98.37
2023-08-07T01:16:43.970Z,98.60
2023-08-07T01:19:20.710Z,99.25
2023-08-07T01:21:50.008Z,98.92
2023-08-07T01:24:16.516Z,99.40
2023-08-07T01:26:45.832Z,99.80
2023-08-07T01:29:35.953Z,100.00
2023-08-07T01:32:05.067Z,99.85
2023-08-07T01:34:32.096Z,100.00
2023-08-07T01:36:59.131Z,100.00
2023-08-07T01:39:25.955Z,100.00
2023-08-07T01:41:52.604Z,100.00
2023-08-07T01:44:19.105Z,100.00
2023-08-07T01:46:45.629Z,100.00
2023-08-07T01:49:12.160Z,100.00
2023-08-07T01:51:38.718Z,100.00
2023-08-07T01:54:05.309Z,100.00
2023-08-07T01:56:31.797Z,100.00
2023-08-07T01:58:58.236Z,100.00
2023-08-07T02:01:24.739Z,100.00
2023-08-07T02:03:51.248Z,100.00
2023-08-07T02:06:17.776Z,100.00
2023-08-07T02:08:44.294Z,100.00
2023-08-07T02:11:10.802Z,100.00
2023-08-07T02:13:37.291Z,100.00
2023-08-07T02:16:04.019Z,100.00
2023-08-07T02:18:30.542Z,100.00
2023-08-07T02:20:57.051Z,100.00
2023-08-07T02:23:23.572Z,100.00
2023-08-07T02:25:50.154Z,100.00
2023-08-07T02:28:16.688Z,100.00
2023-08-07T02:30:48.140Z,100.00
2023-08-07T02:33:15.655Z,100.00
2023-08-07T02:35:42.200Z,100.00
2023-08-07T02:38:08.679Z,100.00
2023-08-07T02:40:35.512Z,100.00
2023-08-07T02:43:05.090Z,100.00
2023-08-07T02:45:31.570Z,100.00
2023-08-07T02:47:58.098Z,100.00
2023-08-07T02:50:25.727Z,100.00
2023-08-07T02:52:52.206Z,100.00
2023-08-07T02:55:18.668Z,100.00
2023-08-07T02:57:45.481Z,100.00
2023-08-07T03:00:12.630Z,100.00
2023-08-07T03:02:39.196Z,100.00
2023-08-07T03:05:08.841Z,100.00
2023-08-07T03:07:35.405Z,100.00
2023-08-07T03:10:01.904Z,100.00
2023-08-07T03:12:28.425Z,100.00
2023-08-07T03:14:57.980Z,100.00
2023-08-07T03:17:24.518Z,100.00
2023-08-07T03:19:51.032Z,100.00
2023-08-07T03:22:17.547Z,100.00
2023-08-07T03:24:48.189Z,100.00
2023-08-07T03:27:15.102Z,100.00
2023-08-07T03:29:46.072Z,100.00
2023-08-07T03:32:13.043Z,100.00
2023-08-07T03:34:39.534Z,100.00
2023-08-07T03:37:06.225Z,100.00
2023-08-07T03:39:32.794Z,100.00
2023-08-07T03:41:59.317Z,100.00
2023-08-07T03:44:25.870Z,100.00
2023-08-07T03:46:52.739Z,100.00
2023-08-07T03:49:19.210Z,100.00
2023-08-07T03:51:45.654Z,100.00
2023-08-07T03:54:12.200Z,100.00
2023-08-07T03:56:39.187Z,100.00
2023-08-07T03:59:05.690Z,100.00
2023-08-07T04:01:32.290Z,100.00
2023-08-07T04:03:58.840Z,100.00
2023-08-07T04:06:27.970Z,100.00
2023-08-07T04:08:54.600Z,100.00
2023-08-07T04:11:21.111Z,100.00
2023-08-07T04:13:47.602Z,100.00
2023-08-07T04:16:14.264Z,100.00
2023-08-07T04:18:40.852Z,100.00
2023-08-07T04:21:07.454Z,100.00
2023-08-07T04:23:33.977Z,100.00
2023-08-07T04:26:01.099Z,100.00
2023-08-07T04:28:29.590Z,100.00
2023-08-07T04:30:56.154Z,100.00
2023-08-07T04:33:22.698Z,100.00
2023-08-07T04:35:49.652Z,100.00
2023-08-07T04:38:16.872Z,100.00
2023-08-07T04:40:49.699Z,100.00
2023-08-07T04:43:22.477Z,100.00
2023-08-07T04:45:50.144Z,99.71
2023-08-07T04:48:17.092Z,97.18
2023-08-07T04:50:43.846Z,95.63
2023-08-07T04:53:10.462Z,95.40
2023-08-07T04:55:37.241Z,96.22
2023-08-07T04:58:03.883Z,96.95
2023-08-07T05:00:30.468Z,95.66
2023-08-07T05:02:57.556Z,97.09
2023-08-07T05:05:24.816Z,96.10
2023-08-07T05:07:51.402Z,96.38
2023-08-07T05:10:18.050Z,95.31
2023-08-07T05:12:44.548Z,94.63
2023-08-07T05:15:11.136Z,94.65
2023-08-07T05:17:37.733Z,94.65
2023-08-07T05:20:05.807Z,94.44
2023-08-07T05:22:32.317Z,95.21
2023-08-07T05:24:58.876Z,93.90
2023-08-07T05:27:25.424Z,94.45
2023-08-07T05:29:51.868Z,93.73
2023-08-07T05:32:18.389Z,93.79
2023-08-07T05:34:45.180Z,92.73
2023-08-07T05:37:11.711Z,91.98
2023-08-07T05:39:38.228Z,90.97
2023-08-07T05:42:05.484Z,90.34
2023-08-07T05:44:32.417Z,89.78
2023-08-07T05:46:58.928Z,89.66
2023-08-07T05:49:26.580Z,87.53
2023-08-07T05:51:54.814Z,86.00
2023-08-07T05:54:21.810Z,86.26
2023-08-07T05:56:48.366Z,85.60
2023-08-07T05:59:14.986Z,85.11
2023-08-07T06:01:42.567Z,84.30
2023-08-07T06:04:10.144Z,83.80
2023-08-07T06:06:37.091Z,83.00
2023-08-07T06:09:04.811Z,81.45
2023-08-07T06:11:31.625Z,83.50
2023-08-07T06:13:58.136Z,81.26
2023-08-07T06:16:25.890Z,80.95
2023-08-07T06:18:52.646Z,80.17
2023-08-07T06:21:19.286Z,79.51
2023-08-07T06:23:48.571Z,81.33
2023-08-07T06:26:15.175Z,80.56
2023-08-07T06:28:42.884Z,79.18
2023-08-07T06:31:11.376Z,78.29
2023-08-07T06:33:38.185Z,78.41
2023-08-07T06:36:05.390Z,78.46
2023-08-07T06:38:35.079Z,79.19
2023-08-07T06:41:01.972Z,77.54
2023-08-07T06:43:28.530Z,78.15
2023-08-07T06:45:56.061Z,78.02
2023-08-07T06:48:22.847Z,79.27
2023-08-07T06:50:50.055Z,77.08
2023-08-07T06:53:16.658Z,77.73
2023-08-07T06:55:43.632Z,77.90
2023-08-07T06:58:10.929Z,78.55
2023-08-07T07:00:38.072Z,78.17
2023-08-07T07:03:04.908Z,76.94
2023-08-07T07:05:32.014Z,76.17
2023-08-07T07:07:59.016Z,75.76
2023-08-07T07:10:25.806Z,74.95
2023-08-07T07:12:53.313Z,73.95
2023-08-07T07:15:22.232Z,72.96
2023-08-07T07:17:48.806Z,72.50
2023-08-07T07:20:16.978Z,71.53
2023-08-07T07:22:43.541Z,71.81
2023-08-07T07:25:10.747Z,71.73
2023-08-07T07:27:37.231Z,71.94
2023-08-07T07:30:04.104Z,72.54
2023-08-07T07:32:30.707Z,72.16
2023-08-07T07:34:57.286Z,72.87
2023-08-07T07:37:26.950Z,70.25
2023-08-07T07:39:53.549Z,69.60
2023-08-07T07:42:20.336Z,68.79
2023-08-07T07:44:49.991Z,68.03
2023-08-07T07:47:16.546Z,66.56
2023-08-07T07:49:48.903Z,67.21
2023-08-07T07:52:15.757Z,65.09
2023-08-07T07:54:42.350Z,65.28
2023-08-07T07:57:08.903Z,63.64
2023-08-07T07:59:35.424Z,64.14
2023-08-07T08:02:02.860Z,62.80
2023-08-07T08:04:31.703Z,64.37
2023-08-07T08:06:58.331Z,65.28
2023-08-07T08:09:24.946Z,65.30
2023-08-07T08:11:51.534Z,63.80
2023-08-07T08:14:18.371Z,65.55
2023-08-07T08:16:44.929Z,64.59
2023-08-07T08:19:11.528Z,65.83
2023-08-07T08:21:38.111Z,65.14
2023-08-07T08:24:05.526Z,64.68
2023-08-07T08:26:32.223Z,62.25
2023-08-07T08:28:58.817Z,62.85
2023-08-07T08:31:25.680Z,64.05
2023-08-07T08:33:52.310Z,63.81
2023-08-07T08:36:19.013Z,63.25
2023-08-07T08:38:47.763Z,63.29
2023-08-07T08:41:17.234Z,62.74
2023-08-07T08:43:44.291Z,63.26
2023-08-07T08:46:12.902Z,62.25
2023-08-07T08:48:40.254Z,64.32
2023-08-07T08:51:07.399Z,63.32
2023-08-07T08:53:33.987Z,65.09
2023-08-07T08:56:01.950Z,63.26
2023-08-07T08:58:29.170Z,62.94
2023-08-07T09:00:55.872Z,62.61
2023-08-07T09:03:22.682Z,62.98
2023-08-07T09:05:50.799Z,62.91
2023-08-07T09:08:17.698Z,63.33
2023-08-07T09:10:44.627Z,62.56
2023-08-07T09:13:15.390Z,60.80
2023-08-07T09:15:42.368Z,58.89
2023-08-07T09:18:09.207Z,58.83
2023-08-07T09:20:36.828Z,60.22
2023-08-07T09:23:03.373Z,60.79
2023-08-07T09:25:34.286Z,60.71
2023-08-07T09:28:05.576Z,60.39
2023-08-07T09:30:33.091Z,58.60
2023-08-07T09:33:00.429Z,59.74
2023-08-07T09:35:27.679Z,60.48
2023-08-07T09:37:58.061Z,61.17
2023-08-07T09:40:24.994Z,61.26
2023-08-07T09:42:55.642Z,61.53
2023-08-07T09:45:26.644Z,60.17
2023-08-07T09:47:59.947Z,60.01
2023-08-07T09:50:26.748Z,61.68
2023-08-07T09:52:53.721Z,61.83
2023-08-07T09:55:20.230Z,62.08
2023-08-07T09:57:46.734Z,61.77
2023-08-07T10:00:16.615Z,60.08
2023-08-07T10:02:43.915Z,59.69
2023-08-07T10:05:14.033Z,58.16
2023-08-07T10:07:41.646Z,59.67
2023-08-07T10:10:11.760Z,59.46
2023-08-07T10:12:39.532Z,60.29
2023-08-07T10:15:06.741Z,60.91
2023-08-07T10:17:34.088Z,61.31
2023-08-07T10:20:00.861Z,59.78
2023-08-07T10:22:30.848Z,58.99
2023-08-07T10:24:58.893Z,59.11
2023-08-07T10:27:26.292Z,58.39
2023-08-07T10:29:53.658Z,57.94
2023-08-07T10:32:21.538Z,57.89
2023-08-07T10:34:48.477Z,58.50
2023-08-07T10:37:40.432Z,59.02
2023-08-07T10:40:10.945Z,58.99
2023-08-07T10:42:55.962Z,58.98
2023-08-07T10:45:23.762Z,60.77
2023-08-07T10:48:06.161Z,59.92
2023-08-07T10:50:35.524Z,59.68
2023-08-07T10:53:05.237Z,59.65
2023-08-07T10:55:46.534Z,60.10
2023-08-07T10:58:24.815Z,57.77
2023-08-07T11:01:10.833Z,59.28
2023-08-07T11:03:37.472Z,58.88
2023-08-07T11:06:04.396Z,58.33
2023-08-07T11:08:31.256Z,58.04
2023-08-07T11:10:59.317Z,58.79
2023-08-07T11:13:25.842Z,58.94
2023-08-07T11:15:52.376Z,58.49
2023-08-07T11:18:20.264Z,58.02
2023-08-07T11:20:46.944Z,59.34
2023-08-07T11:23:13.474Z,59.86
2023-08-07T11:25:39.936Z,59.04
2023-08-07T11:28:06.536Z,58.88
2023-08-07T11:30:33.023Z,58.53
2023-08-07T11:33:03.378Z,59.87
2023-08-07T11:35:30.250Z,59.35
2023-08-07T11:37:59.510Z,58.84
2023-08-07T11:40:26.125Z,59.88
2023-08-07T11:42:52.694Z,56.42
2023-08-07T11:45:20.238Z,56.44
2023-08-07T11:47:46.872Z,56.61
2023-08-07T11:50:13.512Z,57.99
2023-08-07T11:52:43.362Z,58.23
2023-08-07T11:55:10.560Z,58.86
2023-08-07T11:57:39.579Z,59.29
2023-08-07T12:00:18.962Z,59.24
2023-08-07T12:02:45.623Z,60.00
2023-08-07T12:05:12.647Z,57.72
2023-08-07T12:07:40.203Z,56.85
2023-08-07T12:10:10.944Z,56.30
2023-08-07T12:12:38.401Z,55.63
2023-08-07T12:15:08.765Z,56.05
2023-08-07T12:17:37.007Z,56.47
2023-08-07T12:20:11.154Z,56.02
2023-08-07T12:22:38.398Z,54.97
2023-08-07T12:25:05.332Z,55.48
2023-08-07T12:27:31.836Z,57.46
2023-08-07T12:29:58.388Z,53.83
2023-08-07T12:32:24.925Z,54.47
2023-08-07T12:37:21.413Z,56.01
2023-08-07T12:44:46.653Z,56.27
2023-08-07T12:47:13.187Z,56.61
2023-08-07T12:49:39.724Z,56.25
2023-08-07T12:52:06.607Z,56.27
2023-08-07T12:54:33.128Z,55.89
2023-08-07T12:56:59.746Z,55.99
2023-08-07T12:59:26.305Z,55.33
2023-08-07T13:01:54.409Z,59.36
2023-08-07T13:04:21.326Z,54.79
2023-08-07T13:06:50.546Z,55.14
2023-08-07T13:09:17.146Z,55.64
2023-08-07T13:11:43.673Z,56.11
2023-08-07T13:14:10.177Z,55.69
2023-08-07T13:16:36.723Z,55.27
2023-08-07T13:19:05.528Z,55.59
2023-08-07T13:21:32.584Z,54.38
2023-08-07T13:23:59.201Z,55.22
2023-08-07T13:26:25.724Z,54.52
2023-08-07T13:28:54.687Z,57.24
2023-08-07T13:31:21.414Z,55.72
2023-08-07T13:33:48.031Z,56.98
2023-08-07T13:36:16.770Z,56.89
2023-08-07T13:38:44.977Z,55.48
2023-08-07T13:41:13.103Z,55.93
2023-08-07T13:43:39.685Z,56.48
2023-08-07T13:46:06.372Z,55.87
2023-08-07T13:48:34.679Z,54.27
2023-08-07T13:51:05.518Z,54.38
2023-08-07T13:53:32.090Z,54.53
2023-08-07T13:56:00.618Z,53.29
2023-08-07T13:58:27.148Z,53.18
2023-08-07T14:00:53.734Z,52.03
2023-08-07T14:03:20.688Z,50.12
2023-08-07T14:05:47.547Z,50.82
2023-08-07T14:08:14.095Z,50.32
2023-08-07T14:10:43.229Z,52.10
2023-08-07T14:13:11.335Z,51.68
2023-08-07T14:15:40.295Z,51.45
2023-08-07T14:18:07.243Z,52.11
2023-08-07T14:20:39.259Z,52.43
2023-08-07T14:23:21.305Z,50.94
2023-08-07T14:25:51.780Z,50.54
2023-08-07T14:28:19.040Z,50.69
2023-08-07T14:30:45.658Z,49.61
2023-08-07T14:33:12.364Z,50.79
2023-08-07T14:35:38.881Z,51.81
2023-08-07T14:38:05.448Z,52.45
2023-08-07T14:40:32.021Z,53.05
2023-08-07T14:42:58.530Z,53.23
2023-08-07T14:45:25.152Z,54.34
2023-08-07T14:47:51.768Z,53.20
2023-08-07T14:50:18.331Z,52.80
2023-08-07T14:52:44.872Z,52.20
2023-08-07T14:55:11.351Z,51.28
2023-08-07T14:57:40.934Z,51.88
2023-08-07T15:00:09.649Z,49.72
2023-08-07T15:02:36.234Z,51.05
2023-08-07T15:05:02.774Z,52.00
2023-08-07T15:07:31.840Z,53.19
2023-08-07T15:09:58.360Z,51.04
2023-08-07T15:12:25.366Z,52.61
2023-08-07T15:14:52.204Z,51.83
2023-08-07T15:17:18.877Z,50.97
2023-08-07T15:19:47.000Z,51.83
2023-08-07T15:22:19.794Z,53.11
2023-08-07T15:24:47.283Z,52.20
2023-08-07T15:27:13.809Z,53.83
2023-08-07T15:29:45.620Z,54.02
2023-08-07T15:32:12.321Z,53.56
2023-08-07T15:34:38.849Z,53.81
2023-08-07T15:37:05.372Z,53.67
2023-08-07T15:39:32.456Z,54.61
2023-08-07T15:41:59.311Z,54.06
2023-08-07T15:44:26.505Z,53.12
2023-08-07T15:46:53.135Z,53.35
2023-08-07T15:49:19.706Z,53.43
2023-08-07T15:51:48.982Z,52.92
2023-08-07T15:54:18.687Z,52.55
2023-08-07T15:56:45.164Z,51.79
2023-08-07T15:59:11.705Z,51.87
2023-08-07T16:01:38.323Z,52.78
2023-08-07T16:04:05.969Z,52.81
2023-08-07T16:06:32.537Z,53.37
2023-08-07T16:09:02.070Z,52.97
2023-08-07T16:11:28.592Z,51.35
2023-08-07T16:13:56.516Z,51.28
2023-08-07T16:16:23.047Z,52.00
2023-08-07T16:18:49.668Z,50.88
2023-08-07T16:21:16.372Z,50.79
2023-08-07T16:23:42.878Z,51.26
2023-08-07T16:26:09.388Z,52.29
2023-08-07T16:28:35.919Z,52.08
2023-08-07T16:31:02.381Z,52.97
2023-08-07T16:33:28.885Z,52.47
2023-08-07T16:35:55.835Z,53.77
2023-08-07T16:38:22.395Z,52.45
2023-08-07T16:40:48.865Z,52.24
2023-08-07T16:43:15.419Z,52.60
2023-08-07T16:45:41.935Z,53.61
2023-08-07T16:48:08.519Z,54.14
2023-08-07T16:50:35.126Z,53.04
2023-08-07T16:53:01.662Z,53.83
2023-08-07T16:55:28.211Z,53.57
2023-08-07T16:57:54.707Z,54.85
2023-08-07T17:00:21.426Z,53.87
2023-08-07T17:02:49.278Z,53.40
2023-08-07T17:05:15.926Z,54.46
2023-08-07T17:07:42.377Z,54.85
2023-08-07T17:10:14.272Z,54.80
2023-08-07T17:12:41.971Z,55.07
2023-08-07T17:15:08.860Z,54.76
2023-08-07T17:17:41.279Z,54.07
2023-08-07T17:20:08.227Z,52.98
2023-08-07T17:22:34.781Z,54.12
2023-08-07T17:25:01.527Z,54.84
2023-08-07T17:27:28.046Z,54.13
2023-08-07T17:29:55.152Z,53.84
2023-08-07T17:32:21.814Z,55.07
2023-08-07T17:34:48.364Z,56.38
2023-08-07T17:37:15.292Z,56.67
2023-08-07T17:39:41.802Z,56.26
2023-08-07T17:42:08.572Z,56.52
2023-08-07T17:44:35.090Z,56.33
2023-08-07T17:47:01.957Z,56.33
2023-08-07T17:49:28.786Z,55.67
2023-08-07T17:51:55.330Z,56.73
2023-08-07T17:54:21.845Z,56.82
2023-08-07T17:56:48.377Z,57.06
2023-08-07T17:59:15.204Z,56.01
2023-08-07T18:01:42.196Z,57.34
2023-08-07T18:04:08.691Z,57.82
2023-08-07T18:06:35.754Z,57.73
2023-08-07T18:09:02.279Z,56.85
2023-08-07T18:11:29.357Z,56.96
2023-08-07T18:13:56.036Z,57.30
2023-08-07T18:16:24.057Z,57.20
2023-08-07T18:18:53.093Z,58.25
2023-08-07T18:21:20.185Z,57.89
2023-08-07T18:23:46.773Z,57.38
2023-08-07T18:26:13.344Z,57.34
2023-08-07T18:28:40.176Z,57.32
2023-08-07T18:31:10.325Z,57.79
2023-08-07T18:33:37.162Z,57.14
2023-08-07T18:36:04.361Z,58.32
2023-08-07T18:38:30.978Z,58.59
2023-08-07T18:40:57.595Z,57.77
2023-08-07T18:43:24.142Z,58.12
2023-08-07T18:45:50.649Z,58.94
2023-08-07T18:48:17.372Z,59.93
2023-08-07T18:50:44.136Z,59.47
2023-08-07T18:53:10.747Z,59.72
2023-08-07T18:55:40.295Z,59.32
2023-08-07T18:58:06.803Z,59.62
2023-08-07T19:00:33.363Z,59.38
2023-08-07T19:02:59.925Z,59.77
2023-08-07T19:05:26.587Z,61.07
2023-08-07T19:07:53.078Z,61.32
2023-08-07T19:10:19.618Z,62.46
2023-08-07T19:12:46.480Z,61.60
2023-08-07T19:15:14.121Z,64.13
2023-08-07T19:17:40.709Z,64.38
2023-08-07T19:20:07.893Z,63.38
2023-08-07T19:22:34.405Z,63.39
2023-08-07T19:25:00.997Z,64.45
2023-08-07T19:27:27.664Z,65.32
2023-08-07T19:29:54.786Z,65.54
2023-08-07T19:32:21.284Z,65.78
2023-08-07T19:34:47.816Z,65.16
2023-08-07T19:37:14.450Z,66.02
2023-08-07T19:39:40.948Z,67.01
2023-08-07T19:42:07.780Z,67.13
2023-08-07T19:44:34.916Z,67.20
2023-08-07T19:47:01.405Z,68.47
2023-08-07T19:49:27.889Z,67.45
2023-08-07T19:51:54.999Z,68.38
2023-08-07T19:54:21.551Z,68.72
2023-08-07T19:56:50.169Z,69.46
2023-08-07T19:59:16.652Z,70.09
2023-08-07T20:01:43.628Z,70.55
2023-08-07T20:04:11.828Z,70.68
2023-08-07T20:06:38.440Z,72.04
2023-08-07T20:09:05.302Z,72.81
2023-08-07T20:11:36.884Z,73.72
2023-08-07T20:14:03.550Z,73.45
2023-08-07T20:16:32.674Z,74.90
2023-08-07T20:19:00.077Z,75.38
2023-08-07T20:21:26.839Z,75.49
2023-08-07T20:23:53.597Z,76.94
2023-08-07T20:26:21.014Z,77.07
2023-08-07T20:28:47.625Z,78.00
2023-08-07T20:31:16.702Z,77.57
2023-08-07T20:33:46.321Z,77.79
2023-08-07T20:36:12.862Z,78.24
2023-08-07T20:38:41.105Z,78.17
2023-08-07T20:41:07.726Z,79.75
2023-08-07T20:43:34.305Z,79.27
2023-08-07T20:46:00.828Z,79.56
2023-08-07T20:48:27.405Z,80.03
2023-08-07T20:50:54.407Z,79.92
2023-08-07T20:53:21.190Z,80.48
2023-08-07T20:55:47.643Z,82.66
2023-08-07T20:58:14.276Z,82.12
2023-08-07T21:00:40.813Z,82.91
2023-08-07T21:03:07.475Z,83.66
2023-08-07T21:05:33.988Z,83.31
2023-08-07T21:08:00.522Z,82.52
2023-08-07T21:10:27.092Z,83.34
2023-08-07T21:12:53.824Z,83.93
2023-08-07T21:15:20.598Z,86.60
2023-08-07T21:17:47.363Z,85.61
2023-08-07T21:20:13.946Z,84.51
2023-08-07T21:22:40.497Z,84.60
2023-08-07T21:25:07.459Z,85.96
2023-08-07T21:27:34.017Z,85.54
2023-08-07T21:30:00.539Z,85.81
2023-08-07T21:32:27.116Z,86.31
2023-08-07T21:34:53.652Z,85.47
2023-08-07T21:37:20.159Z,85.53
2023-08-07T21:39:46.634Z,85.60
2023-08-07T21:42:13.153Z,86.62
2023-08-07T21:44:39.665Z,88.67
2023-08-07T21:47:07.028Z,86.56
2023-08-07T21:49:34.263Z,87.09
2023-08-07T21:52:01.017Z,87.06
2023-08-07T21:54:27.809Z,86.36
2023-08-07T21:56:54.288Z,87.17
2023-08-07T21:59:20.888Z,87.18
2023-08-07T22:01:48.342Z,86.88
2023-08-07T22:04:14.850Z,88.21
2023-08-07T22:06:41.617Z,88.12
2023-08-07T22:09:08.993Z,88.51
2023-08-07T22:11:35.584Z,88.05
2023-08-07T22:14:02.126Z,88.15
2023-08-07T22:16:28.854Z,88.11
2023-08-07T22:18:55.678Z,88.07
2023-08-07T22:21:22.259Z,89.02
2023-08-07T22:23:48.775Z,88.25
2023-08-07T22:26:15.699Z,89.03
2023-08-07T22:28:45.215Z,88.57
2023-08-07T22:31:11.912Z,89.83
2023-08-07T22:33:38.551Z,90.29
2023-08-07T22:36:12.245Z,89.89
2023-08-07T22:38:40.298Z,89.71
2023-08-07T22:41:07.065Z,90.65
2023-08-07T22:43:33.555Z,89.26
2023-08-07T22:46:00.142Z,90.46
2023-08-07T22:48:26.673Z,91.23
2023-08-07T22:50:54.396Z,91.28
2023-08-07T22:53:21.270Z,91.13
2023-08-07T22:55:48.463Z,90.75
2023-08-07T22:58:14.989Z,89.84
2023-08-07T23:00:44.779Z,92.40
2023-08-07T23:03:11.371Z,90.87
2023-08-07T23:05:38.370Z,91.13
2023-08-07T23:08:06.494Z,90.36
2023-08-07T23:10:32.992Z,91.45
2023-08-07T23:12:59.445Z,91.86
2023-08-07T23:15:26.024Z,90.48
2023-08-07T23:17:52.586Z,91.92
2023-08-07T23:20:19.208Z,91.76
2023-08-07T23:22:45.763Z,93.13
2023-08-07T23:25:13.967Z,91.76
2023-08-07T23:27:40.460Z,91.24
2023-08-07T23:30:07.618Z,91.52
2023-08-07T23:32:34.208Z,92.99
2023-08-07T23:35:00.742Z,93.07
2023-08-07T23:37:27.228Z,91.75
2023-08-07T23:39:53.842Z,93.15
2023-08-07T23:42:20.559Z,92.17
2023-08-07T23:44:47.072Z,91.96
2023-08-07T23:47:13.548Z,92.90
2023-08-07T23:49:40.448Z,92.37
2023-08-07T23:52:10.282Z,93.17
2023-08-07T23:54:36.826Z,93.20
2023-08-07T23:57:03.609Z,94.09
2023-08-07T23:59:30.099Z,94.09
